Kentucky Observed Data For Previous 48 Hours

Caption
Day and Hour Reservoir Elevation (behind dam)* Tailwater Elevation (below dam)* Average Hourly Discharge*
4/7/2020 1 AM CDT 358.53 329.67 186,956
4/7/2020 2 AM CDT 358.49 329.69 186,594
4/7/2020 3 AM CDT 358.44 329.71 186,064
4/7/2020 4 AM CDT 358.42 329.58 185,476
4/7/2020 5 AM CDT 358.37 329.66 184,788
4/7/2020 6 AM CDT 358.32 329.45 184,456
4/7/2020 7 AM CDT 358.29 329.44 184,200
4/7/2020 8 AM CDT 358.24 329.42 183,752
4/7/2020 9 AM CDT 358.21 329.29 183,226
4/7/2020 10 AM CDT 358.21 329.14 173,928
4/7/2020 11 AM CDT 358.25 328.71 156,367
4/7/2020 12 PM CDT 358.23 328.59 144,448
4/7/2020 1 PM CDT 358.21 328.54 139,904
4/7/2020 2 PM CDT 358.19 328.46 140,212
4/7/2020 3 PM CDT 358.17 328.38 132,538
4/7/2020 4 PM CDT 358.14 328.28 136,015
4/7/2020 5 PM CDT 358.15 328.21 139,498
4/7/2020 6 PM CDT 358.12 328.07 138,173
4/7/2020 7 PM CDT 358.10 328.07 139,519
4/7/2020 8 PM CDT 358.11 327.94 139,413
4/7/2020 9 PM CDT 358.05 327.89 139,137
4/7/2020 10 PM CDT 358.05 327.81 139,136
4/7/2020 11 PM CDT 358.05 327.75 139,807
4/8/2020 12 AM CDT 358.00 327.66 139,445
4/8/2020 1 AM CDT 357.95 327.59 138,930
4/8/2020 2 AM CDT 357.94 327.47 138,496
4/8/2020 3 AM CDT 357.89 327.40 138,165
4/8/2020 4 AM CDT 357.85 327.32 137,550
4/8/2020 5 AM CDT 357.83 327.22 137,106
4/8/2020 6 AM CDT 357.81 327.18 136,885
4/8/2020 7 AM CDT 357.78 327.09 136,585
4/8/2020 8 AM CDT 357.77 327.01 136,646
4/8/2020 9 AM CDT 357.80 326.52 128,936
4/8/2020 10 AM CDT 357.82 326.29 112,731
4/8/2020 11 AM CDT 357.86 325.78 95,164
4/8/2020 12 PM CDT 357.87 325.81 88,623
4/8/2020 1 PM CDT 357.85 325.79 88,623
4/8/2020 2 PM CDT 357.85 325.46 88,822
4/8/2020 3 PM CDT 357.85 325.38 89,782
4/8/2020 4 PM CDT 357.93 325.03 85,280
4/8/2020 5 PM CDT 357.89 325.09 78,716
4/8/2020 6 PM CDT 357.91 325.01 89,449
4/8/2020 7 PM CDT 357.89 324.93 89,295
4/8/2020 8 PM CDT 357.89 324.86 88,900
4/8/2020 9 PM CDT 357.92 324.68 88,938
4/8/2020 10 PM CDT 357.95 324.58 89,153
4/8/2020 11 PM CDT 357.90 324.36 89,168
4/9/2020 12 AM CDT 357.76 324.39 88,775
4/9/2020 1 AM CDT 357.82 324.33 88,607
4/9/2020 2 AM CDT 357.77 324.21 88,593
4/9/2020 3 AM CDT 357.75 324.05 88,392
4/9/2020 4 AM CDT 357.60 323.99 88,087
4/9/2020 5 AM CDT 357.50 323.95 87,622
4/9/2020 6 AM CDT 357.49 323.82 87,173
4/9/2020 7 AM CDT 357.46 323.65 86,976
4/9/2020 8 AM CDT 357.50 323.54 87,126
4/9/2020 9 AM CDT 357.57 323.28 87,698
4/9/2020 10 AM CDT 357.48 322.82 60,110
4/9/2020 11 AM CDT 357.78 322.58 48,947
4/9/2020 12 PM CDT 357.76 322.61 40,777
4/9/2020 1 PM CDT 357.80 322.32 38,730
4/9/2020 2 PM CDT 357.76 322.35 41,244
4/9/2020 3 PM CDT 357.81 322.16 42,195
4/9/2020 4 PM CDT 357.77 321.94 42,395
4/9/2020 5 PM CDT 357.84 321.80 42,395
4/9/2020 6 PM CDT 357.86 321.65 42,243
4/9/2020 7 PM CDT 357.86 321.55 42,723

Elevations are in feet above sea level. Discharges are in cubic feet per second and are reported at the end of the hour.